createdAt,value
2022-12-14T00:01:51.203Z,34.53
2022-12-14T00:04:21.631Z,32.15
2022-12-14T00:06:51.724Z,32.45
2022-12-14T00:09:22.123Z,33.72
2022-12-14T00:11:52.770Z,32.45
2022-12-14T00:14:26.131Z,31.33
2022-12-14T00:16:56.648Z,32.45
2022-12-14T00:19:28.493Z,31.70
2022-12-14T00:21:59.152Z,31.77
2022-12-14T00:24:31.085Z,31.83
2022-12-14T00:27:01.511Z,32.20
2022-12-14T00:29:35.513Z,32.95
2022-12-14T00:32:06.176Z,31.60
2022-12-14T00:34:36.515Z,33.45
2022-12-14T00:37:07.376Z,33.35
2022-12-14T00:39:37.965Z,32.67
2022-12-14T00:42:08.351Z,32.78
2022-12-14T00:44:41.782Z,31.42
2022-12-14T00:47:12.236Z,32.65
2022-12-14T00:49:42.750Z,33.22
2022-12-14T00:52:13.082Z,31.88
2022-12-14T00:54:43.527Z,35.45
2022-12-14T00:57:14.104Z,35.05
2022-12-14T00:59:47.276Z,33.63
2022-12-14T01:02:17.787Z,35.25
2022-12-14T01:04:48.187Z,34.05
2022-12-14T01:07:18.548Z,35.03
2022-12-14T01:09:49.134Z,37.25
2022-12-14T01:12:19.494Z,36.42
2022-12-14T01:14:52.644Z,37.05
2022-12-14T01:17:23.060Z,36.90
2022-12-14T01:19:53.500Z,38.00
2022-12-14T01:22:23.818Z,33.85
2022-12-14T01:24:54.342Z,35.20
2022-12-14T01:27:24.714Z,37.05
2022-12-14T01:29:57.961Z,36.00
2022-12-14T01:32:28.381Z,36.08
2022-12-14T01:34:58.785Z,37.40
2022-12-14T01:37:29.142Z,38.15
2022-12-14T01:39:59.588Z,38.15
2022-12-14T01:42:32.201Z,38.63
2022-12-14T01:45:05.471Z,38.70
2022-12-14T01:47:44.308Z,38.22
2022-12-14T01:50:24.720Z,38.00
2022-12-14T01:52:59.286Z,37.85
2022-12-14T01:55:32.884Z,38.92
2022-12-14T01:58:09.813Z,36.95
2022-12-14T02:00:44.244Z,37.05
2022-12-14T02:03:19.708Z,38.03
2022-12-14T02:05:55.807Z,38.92
2022-12-14T02:08:27.799Z,38.63
2022-12-14T02:10:59.984Z,39.53
2022-12-14T02:13:34.310Z,38.83
2022-12-14T02:16:08.473Z,38.72
2022-12-14T02:18:38.927Z,41.42
2022-12-14T02:21:25.380Z,38.88
2022-12-14T02:24:17.870Z,39.53
2022-12-14T02:27:05.813Z,39.60
2022-12-14T02:29:54.795Z,42.97
2022-12-14T02:32:46.367Z,40.22
2022-12-14T02:35:26.999Z,40.33
2022-12-14T02:38:05.256Z,39.80
2022-12-14T02:40:42.264Z,41.47
2022-12-14T02:43:22.272Z,41.45
2022-12-14T02:46:02.490Z,43.72
2022-12-14T02:48:39.215Z,41.72
2022-12-14T02:51:19.828Z,41.78
2022-12-14T02:53:58.083Z,44.90
2022-12-14T02:56:37.849Z,44.92
2022-12-14T02:59:11.849Z,45.85
2022-12-14T03:01:47.489Z,46.70
2022-12-14T03:04:18.378Z,45.40
2022-12-14T03:07:01.164Z,46.47
2022-12-14T03:09:34.477Z,47.65
2022-12-14T03:12:11.284Z,47.80
2022-12-14T03:14:48.589Z,45.75
2022-12-14T03:17:25.429Z,48.67
2022-12-14T03:19:59.406Z,49.15
2022-12-14T03:22:35.754Z,48.92
2022-12-14T03:25:12.558Z,47.53
2022-12-14T03:27:49.581Z,49.28
2022-12-14T03:30:51.332Z,46.90
2022-12-14T03:33:22.358Z,47.83
2022-12-14T03:35:59.418Z,48.10
2022-12-14T03:38:37.418Z,47.63
2022-12-14T03:41:22.137Z,47.33
2022-12-14T03:44:10.743Z,45.42
2022-12-14T03:46:55.685Z,43.63
2022-12-14T03:49:44.979Z,44.78
2022-12-14T03:52:28.672Z,43.50
2022-12-14T03:55:12.992Z,45.05
2022-12-14T03:57:59.072Z,45.15
2022-12-14T04:00:34.257Z,42.45
2022-12-14T04:03:13.515Z,42.53
2022-12-14T04:05:55.270Z,43.03
2022-12-14T04:08:34.772Z,43.45
2022-12-14T04:11:20.959Z,43.90
2022-12-14T04:14:15.908Z,40.20
2022-12-14T04:17:01.439Z,42.05
2022-12-14T04:19:39.786Z,44.97
2022-12-14T04:22:17.216Z,42.20
2022-12-14T04:25:16.782Z,43.13
2022-12-14T04:27:49.679Z,43.15
2022-12-14T04:30:18.203Z,44.50
2022-12-14T04:32:53.902Z,42.55
2022-12-14T04:35:29.956Z,68.78
2022-12-14T04:38:08.363Z,49.05
2022-12-14T04:40:43.412Z,40.45
2022-12-14T04:43:18.272Z,40.67
2022-12-14T04:45:53.521Z,41.63
2022-12-14T04:48:29.211Z,38.85
2022-12-14T04:51:07.578Z,41.42
2022-12-14T04:53:43.781Z,42.95
2022-12-14T04:56:20.570Z,42.05
2022-12-14T04:58:51.564Z,40.28
2022-12-14T05:01:38.276Z,42.50
2022-12-14T05:04:23.637Z,38.75
2022-12-14T05:07:05.217Z,38.97
2022-12-14T05:09:44.722Z,38.45
2022-12-14T05:12:20.033Z,36.05
2022-12-14T05:14:54.699Z,40.13
2022-12-14T05:17:25.102Z,36.00
2022-12-14T05:19:55.455Z,40.03
2022-12-14T05:22:26.509Z,39.03
2022-12-14T05:25:00.286Z,37.05
2022-12-14T05:27:31.398Z,36.88
2022-12-14T05:30:01.628Z,42.47
2022-12-14T05:32:33.166Z,40.08
2022-12-14T05:35:03.737Z,39.60
2022-12-14T05:37:35.837Z,39.72
2022-12-14T05:40:11.277Z,39.97
2022-12-14T05:42:45.430Z,39.08
2022-12-14T05:45:19.301Z,36.22
2022-12-14T05:47:50.454Z,37.70
2022-12-14T05:50:20.987Z,37.38
2022-12-14T05:52:55.283Z,37.15
2022-12-14T05:55:28.892Z,36.88
2022-12-14T05:57:59.697Z,36.88
2022-12-14T06:00:31.403Z,37.00
2022-12-14T06:03:02.091Z,37.40
2022-12-14T06:05:32.966Z,35.95
2022-12-14T06:08:03.379Z,38.97
2022-12-14T06:10:37.345Z,38.35
2022-12-14T06:13:07.689Z,39.60
2022-12-14T06:15:38.871Z,38.55
2022-12-14T06:18:09.897Z,38.92
2022-12-14T06:20:40.447Z,37.25
2022-12-14T06:23:10.872Z,38.97
2022-12-14T06:25:44.620Z,37.88
2022-12-14T06:28:14.972Z,36.85
2022-12-14T06:30:46.177Z,38.80
2022-12-14T06:33:16.773Z,38.92
2022-12-14T06:35:48.353Z,35.92
2022-12-14T06:38:19.994Z,37.95
2022-12-14T06:40:54.121Z,34.25
2022-12-14T06:43:27.853Z,35.95
2022-12-14T06:45:58.464Z,34.63
2022-12-14T06:48:29.083Z,33.97
2022-12-14T06:51:04.122Z,35.20
2022-12-14T06:53:34.823Z,33.10
2022-12-14T06:56:17.011Z,30.88
2022-12-14T06:58:47.944Z,32.75
2022-12-14T07:01:21.508Z,32.70
2022-12-14T07:03:53.959Z,31.45
2022-12-14T07:06:25.026Z,30.58
2022-12-14T07:08:57.039Z,30.23
2022-12-14T07:11:32.360Z,33.38
2022-12-14T07:14:06.416Z,32.30
2022-12-14T07:16:38.241Z,30.27
2022-12-14T07:19:08.882Z,30.83
2022-12-14T07:21:39.273Z,31.58
2022-12-14T07:24:10.232Z,29.33
2022-12-14T07:26:43.869Z,29.88
2022-12-14T07:29:15.399Z,29.73
2022-12-14T07:31:49.341Z,27.42
2022-12-14T07:34:20.878Z,28.75
2022-12-14T07:36:54.490Z,30.35
2022-12-14T07:39:25.607Z,28.52
2022-12-14T07:41:58.794Z,27.25
2022-12-14T07:44:29.269Z,27.05
2022-12-14T07:46:59.813Z,28.60
2022-12-14T07:49:30.525Z,28.08
2022-12-14T07:52:01.585Z,26.35
2022-12-14T07:54:32.628Z,28.35
2022-12-14T07:57:05.614Z,27.02
2022-12-14T07:59:37.181Z,28.17
2022-12-14T08:02:07.515Z,27.25
2022-12-14T08:04:38.373Z,26.77
2022-12-14T08:07:08.846Z,25.48
2022-12-14T08:09:39.635Z,27.45
2022-12-14T08:12:13.199Z,27.38
2022-12-14T08:14:43.480Z,26.65
2022-12-14T08:17:13.770Z,26.20
2022-12-14T08:19:44.212Z,26.23
2022-12-14T08:22:14.934Z,28.88
2022-12-14T08:24:49.470Z,28.17
2022-12-14T08:27:23.402Z,28.48
2022-12-14T08:29:54.138Z,28.42
2022-12-14T08:32:27.246Z,26.60
2022-12-14T08:34:59.990Z,27.08
2022-12-14T08:37:30.891Z,26.77
2022-12-14T08:40:01.963Z,28.88
2022-12-14T08:42:35.443Z,29.13
2022-12-14T08:45:06.199Z,26.88
2022-12-14T08:47:37.484Z,29.10
2022-12-14T08:50:09.639Z,27.92
2022-12-14T08:52:40.194Z,28.00
2022-12-14T08:55:11.008Z,26.10
2022-12-14T08:57:44.116Z,27.27
2022-12-14T09:00:16.375Z,28.77
2022-12-14T09:02:47.005Z,26.45
2022-12-14T09:05:20.535Z,26.40
2022-12-14T09:07:51.391Z,28.60
2022-12-14T09:10:23.053Z,27.75
2022-12-14T09:12:56.804Z,26.25
2022-12-14T09:15:28.285Z,28.05
2022-12-14T09:17:58.816Z,27.92
2022-12-14T09:20:29.110Z,26.02
2022-12-14T09:22:59.501Z,27.30
2022-12-14T09:25:30.224Z,25.58
2022-12-14T09:28:03.759Z,24.75
2022-12-14T09:30:35.962Z,25.35
2022-12-14T09:33:06.448Z,24.33
2022-12-14T09:35:37.015Z,26.27
2022-12-14T09:38:07.443Z,24.38
2022-12-14T09:40:46.885Z,25.70
2022-12-14T09:43:39.535Z,23.58
2022-12-14T09:46:22.701Z,26.92
2022-12-14T09:48:54.920Z,26.90
2022-12-14T09:51:31.921Z,26.60
2022-12-14T09:54:09.119Z,25.33
2022-12-14T09:56:41.698Z,25.83
2022-12-14T09:59:21.319Z,26.50
2022-12-14T10:05:00.941Z,24.52
2022-12-14T10:07:41.718Z,24.30
2022-12-14T10:10:24.163Z,23.60
2022-12-14T10:13:04.094Z,24.48
2022-12-14T10:15:46.856Z,26.02
2022-12-14T10:21:23.548Z,24.70
2022-12-14T10:23:58.975Z,27.65
2022-12-14T10:26:35.979Z,26.63
2022-12-14T10:29:13.826Z,27.02
2022-12-14T10:31:59.011Z,26.15
2022-12-14T10:34:33.122Z,25.33
2022-12-14T10:37:20.865Z,23.42
2022-12-14T10:40:03.515Z,24.83
2022-12-14T10:42:47.433Z,24.58
2022-12-14T10:45:41.526Z,25.40
2022-12-14T10:48:37.945Z,24.88
2022-12-14T10:51:12.189Z,25.13
2022-12-14T10:53:47.985Z,25.38
2022-12-14T10:56:23.856Z,23.88
2022-12-14T10:59:42.363Z,25.50
2022-12-14T11:02:18.564Z,23.67
2022-12-14T11:04:54.022Z,26.48
2022-12-14T11:07:27.801Z,24.63
2022-12-14T11:13:00.750Z,23.13
2022-12-14T11:15:36.681Z,24.35
2022-12-14T11:18:10.186Z,23.55
2022-12-14T11:20:54.062Z,25.63
2022-12-14T11:23:30.000Z,25.02
2022-12-14T11:26:02.544Z,26.08
2022-12-14T11:28:37.711Z,27.23
2022-12-14T11:31:11.962Z,27.30
2022-12-14T11:33:50.225Z,24.02
2022-12-14T11:36:31.560Z,24.13
2022-12-14T11:39:03.727Z,22.33
2022-12-14T11:41:38.610Z,22.17
2022-12-14T11:44:25.014Z,23.42
2022-12-14T11:46:58.455Z,22.13
2022-12-14T11:49:36.683Z,25.50
2022-12-14T11:52:15.023Z,24.25
2022-12-14T11:54:50.200Z,24.55
2022-12-14T11:57:27.094Z,24.35
2022-12-14T12:00:00.933Z,22.33
2022-12-14T12:05:13.658Z,23.75
2022-12-14T12:07:56.012Z,29.83
2022-12-14T12:10:28.953Z,29.80
2022-12-14T12:13:02.792Z,26.60
2022-12-14T12:18:12.135Z,24.30
2022-12-14T12:20:53.346Z,22.58
2022-12-14T12:23:33.703Z,24.50
2022-12-14T12:26:14.816Z,23.80
2022-12-14T12:28:49.797Z,22.63
2022-12-14T12:31:26.653Z,29.35
2022-12-14T12:34:04.155Z,27.67
2022-12-14T12:36:36.469Z,22.92
2022-12-14T12:39:18.022Z,22.45
2022-12-14T12:42:00.503Z,24.88
2022-12-14T12:44:49.638Z,25.05
2022-12-14T12:47:33.355Z,27.00
2022-12-14T12:50:17.644Z,25.33
2022-12-14T12:53:02.716Z,24.83
2022-12-14T12:55:44.112Z,24.88
2022-12-14T12:58:23.098Z,24.42
2022-12-14T13:00:56.285Z,24.42
2022-12-14T13:03:32.459Z,23.70
2022-12-14T13:06:14.815Z,23.50
2022-12-14T13:08:49.875Z,25.45
2022-12-14T13:11:29.275Z,26.23
2022-12-14T13:14:05.967Z,27.15
2022-12-14T13:16:40.115Z,29.17
2022-12-14T13:19:49.716Z,26.38
2022-12-14T13:22:21.591Z,27.02
2022-12-14T13:24:59.461Z,26.02
2022-12-14T13:27:54.946Z,31.83
2022-12-14T13:30:35.898Z,30.83
2022-12-14T13:33:42.630Z,26.30
2022-12-14T13:36:41.365Z,27.90
2022-12-14T13:39:45.651Z,26.08
2022-12-14T13:42:30.709Z,32.05
2022-12-14T13:45:09.430Z,28.17
2022-12-14T13:47:43.924Z,29.63
2022-12-14T13:50:38.884Z,39.08
2022-12-14T13:53:28.132Z,40.42
2022-12-14T13:56:09.272Z,36.13
2022-12-14T13:58:45.423Z,31.65
2022-12-14T14:01:39.787Z,28.30
2022-12-14T14:04:25.418Z,31.48
2022-12-14T14:06:57.563Z,29.33
2022-12-14T14:10:01.011Z,25.85
2022-12-14T14:12:45.862Z,25.80
2022-12-14T14:16:26.753Z,31.15
2022-12-14T14:18:55.118Z,29.45
2022-12-14T14:22:06.331Z,29.75
2022-12-14T14:24:55.163Z,28.00
2022-12-14T14:27:27.613Z,33.22
2022-12-14T14:30:01.783Z,36.92
2022-12-14T14:32:43.817Z,34.03
2022-12-14T14:35:33.507Z,29.45
2022-12-14T14:38:08.792Z,27.95
2022-12-14T14:41:14.658Z,26.90
2022-12-14T14:43:35.576Z,27.85
2022-12-14T14:46:08.661Z,27.90
2022-12-14T14:48:44.753Z,29.65
2022-12-14T14:51:25.359Z,25.83
2022-12-14T14:57:38.186Z,25.65
2022-12-14T15:00:20.224Z,26.98
2022-12-14T15:02:53.078Z,27.27
2022-12-14T15:05:44.349Z,27.73
2022-12-14T15:08:25.176Z,27.55
2022-12-14T15:10:57.823Z,26.73
2022-12-14T15:13:32.923Z,29.27
2022-12-14T15:16:03.315Z,26.23
2022-12-14T15:18:35.077Z,31.27
2022-12-14T15:21:11.802Z,26.50
2022-12-14T15:23:49.445Z,27.85
2022-12-14T15:26:25.807Z,28.45
2022-12-14T15:28:58.208Z,34.72
2022-12-14T15:31:34.277Z,34.58
2022-12-14T15:34:05.767Z,32.42
2022-12-14T15:36:42.287Z,27.48
2022-12-14T15:39:32.124Z,31.27
2022-12-14T15:42:08.646Z,29.00
2022-12-14T15:44:40.466Z,30.75
2022-12-14T15:47:29.043Z,29.52
2022-12-14T15:50:18.607Z,32.10
2022-12-14T15:52:50.675Z,32.92
2022-12-14T15:55:35.499Z,31.88
2022-12-14T15:58:12.187Z,43.55
2022-12-14T16:00:46.991Z,28.52
2022-12-14T16:03:31.784Z,32.05
2022-12-14T16:06:05.099Z,27.65
2022-12-14T16:08:39.588Z,31.70
2022-12-14T16:11:29.819Z,29.23
2022-12-14T16:14:04.327Z,29.48
2022-12-14T16:16:37.593Z,28.70
2022-12-14T16:19:26.597Z,29.15
2022-12-14T16:22:17.009Z,30.88
2022-12-14T16:25:01.209Z,31.52
2022-12-14T16:30:10.158Z,28.13
2022-12-14T16:32:40.854Z,31.40
2022-12-14T16:35:22.003Z,28.77
2022-12-14T16:37:55.851Z,29.80
2022-12-14T16:43:25.573Z,30.80
2022-12-14T16:46:15.075Z,27.67
2022-12-14T16:48:50.203Z,30.95
2022-12-14T16:51:58.419Z,30.60
2022-12-14T16:54:27.541Z,33.75
2022-12-14T16:57:02.684Z,43.47
2022-12-14T16:59:43.414Z,53.17
2022-12-14T17:02:31.893Z,36.40
2022-12-14T17:05:05.181Z,31.90
2022-12-14T17:07:36.443Z,31.38
2022-12-14T17:10:07.418Z,32.33
2022-12-14T17:12:38.535Z,32.40
2022-12-14T17:15:16.403Z,31.95
2022-12-14T17:17:49.665Z,31.05
2022-12-14T17:20:26.191Z,32.58
2022-12-14T17:22:58.737Z,31.17
2022-12-14T17:25:29.980Z,31.27
2022-12-14T17:28:00.809Z,32.30
2022-12-14T17:30:35.273Z,30.67
2022-12-14T17:33:05.422Z,31.08
2022-12-14T17:35:36.112Z,31.60
2022-12-14T17:38:15.809Z,32.03
2022-12-14T17:40:47.082Z,33.97
2022-12-14T17:43:21.586Z,34.35
2022-12-14T17:45:55.457Z,34.45
2022-12-14T17:48:26.735Z,35.65
2022-12-14T17:50:57.274Z,33.58
2022-12-14T17:53:32.891Z,32.92
2022-12-14T17:56:05.103Z,31.58
2022-12-14T17:58:35.757Z,34.30
2022-12-14T18:01:09.949Z,34.35
2022-12-14T18:03:40.762Z,34.70
2022-12-14T18:06:17.940Z,34.10
2022-12-14T18:08:49.634Z,32.92
2022-12-14T18:11:24.226Z,32.67
2022-12-14T18:13:54.443Z,32.22
2022-12-14T18:16:29.387Z,33.58
2022-12-14T18:19:00.929Z,34.30
2022-12-14T18:21:33.164Z,34.55
2022-12-14T18:24:08.090Z,33.42
2022-12-14T18:26:43.328Z,34.05
2022-12-14T18:29:14.360Z,34.35
2022-12-14T18:31:49.961Z,32.88
2022-12-14T18:34:21.045Z,35.53
2022-12-14T18:36:52.917Z,34.45
2022-12-14T18:39:23.538Z,36.58
2022-12-14T18:41:56.334Z,37.42
2022-12-14T18:44:27.650Z,37.10
2022-12-14T18:47:14.891Z,40.92
2022-12-14T18:49:52.605Z,40.83
2022-12-14T18:52:24.341Z,38.75
2022-12-14T18:54:55.530Z,39.35
2022-12-14T18:57:27.344Z,39.38
2022-12-14T19:00:00.089Z,40.03
2022-12-14T19:02:35.413Z,38.08
2022-12-14T19:05:08.208Z,37.80
2022-12-14T19:07:42.552Z,37.40
2022-12-14T19:10:20.184Z,38.33
2022-12-14T19:12:51.974Z,38.75
2022-12-14T19:15:28.348Z,42.22
2022-12-14T19:18:03.088Z,41.70
2022-12-14T19:20:33.630Z,43.28
2022-12-14T19:23:05.212Z,45.15
2022-12-14T19:25:40.038Z,47.13
2022-12-14T19:28:30.736Z,53.35
2022-12-14T19:31:05.368Z,47.65
2022-12-14T19:33:40.944Z,43.47
2022-12-14T19:36:13.325Z,42.58
2022-12-14T19:38:49.297Z,42.38
2022-12-14T19:41:21.642Z,41.55
2022-12-14T19:43:53.536Z,43.53
2022-12-14T19:46:24.074Z,44.00
2022-12-14T19:49:00.100Z,43.55
2022-12-14T19:51:31.381Z,44.85
2022-12-14T19:54:03.557Z,48.25
2022-12-14T19:56:35.467Z,45.33
2022-12-14T19:59:06.799Z,46.22
2022-12-14T20:01:43.322Z,41.60
2022-12-14T20:04:20.239Z,40.17
2022-12-14T20:06:54.427Z,41.20
2022-12-14T20:09:27.941Z,38.97
2022-12-14T20:11:59.486Z,40.95
2022-12-14T20:14:30.686Z,38.85
2022-12-14T20:17:02.034Z,38.63
2022-12-14T20:19:35.480Z,39.85
2022-12-14T20:22:08.567Z,38.13
2022-12-14T20:24:43.191Z,38.22
2022-12-14T20:27:13.373Z,39.17
2022-12-14T20:29:45.493Z,39.55
2022-12-14T20:32:16.925Z,37.90
2022-12-14T20:34:50.490Z,38.75
2022-12-14T20:37:22.502Z,37.53
2022-12-14T20:39:53.415Z,40.67
2022-12-14T20:42:25.168Z,39.63
2022-12-14T20:44:56.758Z,40.30
2022-12-14T20:47:27.584Z,41.63
2022-12-14T20:50:01.415Z,40.53
2022-12-14T20:55:04.775Z,39.10
2022-12-14T20:57:36.289Z,42.22
2022-12-14T21:00:08.744Z,42.13
2022-12-14T21:02:39.654Z,42.60
2022-12-14T21:05:14.131Z,44.85
2022-12-14T21:07:45.592Z,45.33
2022-12-14T21:10:15.782Z,41.83
2022-12-14T21:12:45.441Z,42.15
2022-12-14T21:15:16.743Z,41.55
2022-12-14T21:17:47.224Z,48.90
2022-12-14T21:20:20.312Z,46.92
2022-12-14T21:22:50.363Z,45.65
2022-12-14T21:25:29.039Z,44.95
2022-12-14T21:28:09.969Z,45.20
2022-12-14T21:30:41.638Z,43.67
2022-12-14T21:33:11.841Z,44.25
2022-12-14T21:35:48.204Z,46.42
2022-12-14T21:38:18.476Z,43.63
2022-12-14T21:41:08.092Z,46.85
2022-12-14T21:43:54.605Z,44.92
2022-12-14T21:47:15.477Z,43.30
2022-12-14T21:50:26.094Z,45.75
2022-12-14T21:53:52.670Z,42.15
2022-12-14T21:57:00.566Z,45.13
2022-12-14T22:03:13.789Z,45.42
2022-12-14T22:05:48.255Z,45.10
2022-12-14T22:08:21.436Z,44.55
2022-12-14T22:10:52.240Z,47.22
2022-12-14T22:13:34.889Z,45.75
2022-12-14T22:16:17.375Z,50.30
2022-12-14T22:18:49.311Z,46.47
2022-12-14T22:21:30.538Z,45.15
2022-12-14T22:24:14.076Z,44.50
2022-12-14T22:26:45.932Z,41.55
2022-12-14T22:29:18.256Z,43.45
2022-12-14T22:50:49.566Z,43.17
2022-12-14T22:53:21.066Z,41.88
2022-12-14T22:55:51.750Z,44.25
2022-12-14T22:58:26.366Z,42.72
2022-12-14T23:00:59.294Z,43.83
2022-12-14T23:03:47.354Z,44.88
2022-12-14T23:06:20.487Z,43.63
2022-12-14T23:09:10.603Z,43.85
2022-12-14T23:11:54.486Z,39.88
2022-12-14T23:14:37.446Z,42.97
2022-12-14T23:17:21.404Z,45.92
2022-12-14T23:20:07.128Z,46.03
2022-12-14T23:22:49.926Z,45.10
2022-12-14T23:25:32.984Z,44.90
2022-12-14T23:31:18.715Z,44.15
2022-12-14T23:34:03.170Z,44.08
2022-12-14T23:36:49.137Z,47.67
2022-12-14T23:39:32.109Z,44.60
2022-12-14T23:42:14.899Z,44.75
2022-12-14T23:45:03.708Z,46.03
2022-12-14T23:47:49.306Z,46.72
2022-12-14T23:50:33.293Z,44.97
2022-12-14T23:53:24.290Z,47.03
2022-12-14T23:56:08.543Z,46.75
2022-12-14T23:58:51.583Z,41.20
